Time;durP1;ratioP1;P1;durP2;ratioP2;P2;SDS_P1;SDS_P2;PMS_P1;PMS_P2;Temp;Humidity;BMP_temperature;BMP_pressure;BME280_temperature;BME280_humidity;BME280_pressure;Samples;Min_cycle;Max_cycle;Signal;HPM_P1;HPM_P2
2021/07/10 00:01:07;;;;;;;4.97;2.70;;;;;;;15.81;72.65;101187.28;5039967;28;20768;-45
2021/07/10 00:03:34;;;;;;;4.20;2.97;;;;;;;15.82;72.79;101186.09;5038413;28;20048;-48
2021/07/10 00:06:01;;;;;;;3.30;2.45;;;;;;;15.80;72.81;101179.28;5022398;28;20147;-44
2021/07/10 00:08:28;;;;;;;4.78;2.33;;;;;;;15.78;72.94;101176.03;5038520;28;20068;-45
2021/07/10 00:10:55;;;;;;;9.82;3.47;;;;;;;15.78;73.14;101174.03;5036300;28;20057;-44
2021/07/10 00:13:22;;;;;;;6.70;2.90;;;;;;;15.80;73.30;101176.50;5037357;28;20135;-47
2021/07/10 00:15:49;;;;;;;3.60;2.10;;;;;;;15.78;73.40;101167.66;5041368;28;20061;-43
2021/07/10 00:18:16;;;;;;;5.75;1.92;;;;;;;15.73;73.39;101173.53;5042545;28;20139;-46
2021/07/10 00:20:44;;;;;;;2.95;1.88;;;;;;;15.74;73.22;101178.78;5042408;28;20041;-43
2021/07/10 00:23:11;;;;;;;3.30;2.55;;;;;;;15.77;73.38;101180.00;5043809;28;20044;-44
2021/07/10 00:25:39;;;;;;;4.53;2.47;;;;;;;15.70;73.66;101171.50;5038767;28;20045;-44
2021/07/10 00:28:07;;;;;;;5.63;3.58;;;;;;;15.67;73.83;101175.03;5039730;28;20175;-47
2021/07/10 00:30:35;;;;;;;4.18;3.10;;;;;;;15.69;73.82;101172.69;5022447;28;20119;-52
2021/07/10 00:33:03;;;;;;;6.40;3.47;;;;;;;15.66;74.03;101168.66;5023593;28;20053;-57
2021/07/10 00:35:30;;;;;;;5.88;2.80;;;;;;;15.62;74.12;101178.13;5038658;28;20063;-47
2021/07/10 00:37:56;;;;;;;5.18;2.45;;;;;;;15.63;74.26;101180.53;5039603;28;20152;-50
2021/07/10 00:40:23;;;;;;;5.03;3.13;;;;;;;15.64;74.18;101176.59;5043355;28;20084;-50
2021/07/10 00:42:50;;;;;;;3.10;2.30;;;;;;;15.61;74.41;101176.50;5044023;28;20071;-46
2021/07/10 00:45:18;;;;;;;3.10;2.40;;;;;;;15.57;74.62;101176.44;5040033;28;20172;-55
2021/07/10 00:47:45;;;;;;;7.32;2.15;;;;;;;15.56;74.67;101176.81;5041900;28;20071;-50
2021/07/10 00:50:18;;;;;;;3.67;2.22;;;;;;;15.48;75.42;101167.50;5025545;28;20081;-47
2021/07/10 00:52:45;;;;;;;4.25;2.20;;;;;;;15.47;74.91;101165.03;5040856;28;20060;-48
2021/07/10 00:55:14;;;;;;;5.22;1.60;;;;;;;15.47;75.07;101170.63;5041171;28;20067;-48
2021/07/10 00:57:42;;;;;;;4.78;2.13;;;;;;;15.46;75.03;101174.63;5043209;28;20119;-50
2021/07/10 01:00:11;;;;;;;4.35;2.38;;;;;;;15.42;75.55;101170.91;5043800;28;20080;-45
2021/07/10 01:02:41;;;;;;;7.15;2.85;;;;;;;15.40;75.50;101159.31;5042910;28;20064;-43
2021/07/10 01:05:12;;;;;;;3.70;2.20;;;;;;;15.41;75.64;101158.13;5042582;28;20052;-52
2021/07/10 01:07:39;;;;;;;7.00;2.80;;;;;;;15.43;75.47;101164.16;5037768;28;20128;-56
2021/07/10 01:10:08;;;;;;;5.25;2.90;;;;;;;15.40;75.59;101159.31;5036569;28;20140;-45
2021/07/10 01:12:38;;;;;;;9.35;4.45;;;;;;;15.38;76.07;101156.88;5038094;28;20053;-44
2021/07/10 01:15:07;;;;;;;13.18;9.07;;;;;;;15.36;76.28;101169.56;5042133;28;20155;-44
2021/07/10 01:17:36;;;;;;;9.07;2.95;;;;;;;15.35;76.40;101168.78;5026960;28;20053;-44
2021/07/10 01:20:10;;;;;;;6.57;4.25;;;;;;;15.33;76.68;101162.75;5041201;28;20056;-44
2021/07/10 01:22:40;;;;;;;8.05;3.33;;;;;;;15.34;76.92;101155.19;5041403;28;20512;-47
2021/07/10 01:25:10;;;;;;;8.32;3.63;;;;;;;15.34;76.87;101167.16;5021866;28;20132;-46
2021/07/10 01:27:38;;;;;;;5.78;3.15;;;;;;;15.34;77.03;101160.75;5042024;28;20746;-53
2021/07/10 01:30:09;;;;;;;19.08;8.75;;;;;;;15.34;77.25;101160.75;5043977;28;22710;-44
2021/07/10 01:32:37;;;;;;;23.52;10.77;;;;;;;15.30;77.34;101148.75;5037556;28;20053;-50
2021/07/10 01:35:06;;;;;;;25.20;9.77;;;;;;;15.27;77.35;101153.06;5041448;28;20091;-44
2021/07/10 01:37:34;;;;;;;10.95;5.10;;;;;;;15.28;77.44;101151.88;5041021;28;20045;-46
2021/07/10 01:40:01;;;;;;;8.27;4.47;;;;;;;15.29;77.78;101150.72;5037048;28;20076;-44
2021/07/10 01:42:30;;;;;;;7.88;4.32;;;;;;;15.25;78.13;101152.59;5048652;28;20084;-44
2021/07/10 01:44:59;;;;;;;6.53;3.65;;;;;;;15.27;77.84;101149.47;5040590;28;20049;-43
2021/07/10 01:47:26;;;;;;;4.95;3.22;;;;;;;15.23;78.36;101143.81;5042783;28;20048;-46
2021/07/10 01:49:53;;;;;;;7.70;3.53;;;;;;;15.22;78.54;101143.00;5040185;28;20041;-48
2021/07/10 01:52:20;;;;;;;6.00;3.05;;;;;;;15.22;78.50;101140.19;5038659;28;20057;-54
2021/07/10 01:54:47;;;;;;;7.70;3.50;;;;;;;15.22;78.45;101148.56;5038383;28;20057;-44
2021/07/10 01:57:14;;;;;;;3.92;2.80;;;;;;;15.22;78.76;101143.00;5038100;28;20118;-53
2021/07/10 01:59:40;;;;;;;5.30;3.15;;;;;;;15.21;78.75;101138.59;5039335;28;20066;-47
2021/07/10 02:02:07;;;;;;;5.93;3.20;;;;;;;15.24;78.95;101131.47;5043289;28;20401;-46
2021/07/10 02:04:47;;;;;;;6.50;3.92;;;;;;;15.27;79.62;101134.31;5042733;28;20136;-46
2021/07/10 02:07:17;;;;;;;6.30;3.33;;;;;;;15.25;79.11;101128.31;5038229;28;20076;-45
2021/07/10 02:09:45;;;;;;;6.47;4.07;;;;;;;15.29;78.77;101124.78;5036880;28;20041;-50
2021/07/10 02:12:13;;;;;;;4.38;3.15;;;;;;;15.26;79.09;101126.34;5040521;28;20044;-49
2021/07/10 02:14:40;;;;;;;6.70;3.15;;;;;;;15.27;78.86;101128.75;5042406;28;20060;-44
2021/07/10 02:17:07;;;;;;;7.57;3.85;;;;;;;15.25;79.19;101131.09;5041622;28;20061;-45
2021/07/10 02:19:34;;;;;;;3.38;2.70;;;;;;;15.22;79.28;101125.47;5037647;28;20076;-44
2021/07/10 02:22:01;;;;;;;7.10;3.40;;;;;;;15.23;79.26;101125.09;5040584;28;20486;-43
2021/07/10 02:24:28;;;;;;;8.40;5.10;;;;;;;15.23;79.28;101121.50;5040005;28;20539;-44
2021/07/10 02:26:54;;;;;;;5.43;3.38;;;;;;;15.21;79.26;101121.88;5039316;28;20052;-45
2021/07/10 02:29:21;;;;;;;9.48;3.25;;;;;;;15.18;79.41;101127.38;5027690;28;20051;-43
2021/07/10 02:31:48;;;;;;;8.45;3.47;;;;;;;15.12;79.53;101121.28;5036612;28;20136;-44
2021/07/10 02:34:16;;;;;;;9.50;3.60;;;;;;;15.14;79.49;101116.13;5026172;28;20051;-44
2021/07/10 02:36:43;;;;;;;3.50;2.05;;;;;;;15.13;79.19;101111.75;5020284;28;20083;-44
2021/07/10 02:39:10;;;;;;;7.07;3.60;;;;;;;15.13;79.39;101108.94;5042181;28;20867;-44
2021/07/10 02:41:36;;;;;;;3.58;3.08;;;;;;;15.13;79.48;101106.16;5042460;28;20151;-51
2021/07/10 02:44:05;;;;;;;5.25;3.13;;;;;;;15.13;79.46;101106.16;5037516;28;20053;-43
2021/07/10 02:46:33;;;;;;;8.10;4.68;;;;;;;15.12;79.41;101101.75;5038164;28;20068;-49
2021/07/10 02:49:00;;;;;;;5.68;3.15;;;;;;;15.09;79.81;101101.69;5025270;28;20549;-44
2021/07/10 02:51:28;;;;;;;5.10;4.30;;;;;;;15.11;79.70;101102.94;5039090;28;20049;-44
2021/07/10 02:53:56;;;;;;;21.38;14.88;;;;;;;15.16;79.49;101105.44;5020981;28;20056;-45
2021/07/10 02:56:24;;;;;;;25.63;15.18;;;;;;;15.18;79.68;101094.72;5023546;28;20527;-50
2021/07/10 02:58:52;;;;;;;13.35;7.55;;;;;;;15.16;79.50;101085.09;5039747;28;20096;-44
2021/07/10 03:01:19;;;;;;;7.68;4.95;;;;;;;15.13;79.60;101086.63;5043391;28;20139;-49
2021/07/10 03:03:50;;;;;;;49.50;23.30;;;;;;;15.17;79.42;101093.09;5042992;28;20088;-43
2021/07/10 03:06:17;;;;;;;63.08;28.42;;;;;;;15.19;79.55;101089.94;5042166;28;20049;-45
2021/07/10 03:08:45;;;;;;;10.05;4.90;;;;;;;15.17;79.53;101093.09;5035872;28;20056;-50
2021/07/10 03:11:13;;;;;;;26.95;11.60;;;;;;;15.13;79.42;101083.84;5020962;28;20052;-42
2021/07/10 03:13:40;;;;;;;18.30;7.05;;;;;;;15.12;79.23;101087.81;5041671;28;20135;-41
2021/07/10 03:16:07;;;;;;;13.77;5.40;;;;;;;15.12;79.06;101089.78;5042142;28;20045;-43
2021/07/10 03:18:35;;;;;;;45.03;16.77;;;;;;;15.12;79.15;101084.19;5040624;28;20814;-43
2021/07/10 03:21:02;;;;;;;13.00;5.22;;;;;;;15.07;79.25;101079.75;5038826;28;20075;-43
2021/07/10 03:23:29;;;;;;;8.30;3.28;;;;;;;15.12;79.23;101078.63;5039490;28;20057;-48
2021/07/10 03:25:55;;;;;;;48.90;16.98;;;;;;;15.13;79.19;101083.03;5040493;28;20072;-43
2021/07/10 03:28:22;;;;;;;156.30;47.50;;;;;;;15.10;79.30;101078.19;5038771;28;20067;-51
2021/07/10 03:30:53;;;;;;;40.13;14.45;;;;;;;15.10;79.24;101083.78;5035265;28;20061;-43
2021/07/10 03:33:21;;;;;;;17.60;6.65;;;;;;;15.03;79.38;101066.91;5042208;28;20057;-52
2021/07/10 03:35:49;;;;;;;10.55;4.18;;;;;;;14.96;79.53;101073.13;5042910;28;20136;-42
2021/07/10 03:38:16;;;;;;;6.35;2.53;;;;;;;14.96;79.38;101069.53;5043148;28;20042;-46
2021/07/10 03:40:42;;;;;;;7.80;4.65;;;;;;;14.97;79.47;101073.94;5025611;28;20383;-42
2021/07/10 03:43:09;;;;;;;10.52;4.03;;;;;;;14.96;79.31;101081.50;5044782;28;20282;-48
2021/07/10 03:45:36;;;;;;;4.32;2.75;;;;;;;14.94;79.33;101075.47;5028926;28;20059;-50
2021/07/10 03:48:03;;;;;;;7.07;3.15;;;;;;;14.92;79.20;101075.06;5044975;28;20053;-43
2021/07/10 03:50:30;;;;;;;5.18;3.22;;;;;;;14.89;79.31;101073.00;5047508;28;20092;-44
2021/07/10 03:52:57;;;;;;;7.40;3.13;;;;;;;14.88;79.23;101071.38;5045984;28;20064;-42
2021/07/10 03:55:29;;;;;;;4.90;2.73;;;;;;;14.87;79.17;101075.34;5042923;28;20048;-54
2021/07/10 03:57:56;;;;;;;5.30;3.00;;;;;;;14.90;79.20;101073.81;5040695;28;20055;-43
2021/07/10 04:00:23;;;;;;;9.43;4.15;;;;;;;14.89;79.22;101067.41;5043782;28;20110;-45
2021/07/10 04:02:53;;;;;;;15.02;7.35;;;;;;;14.92;78.90;101069.47;5041430;28;20059;-45
2021/07/10 04:05:20;;;;;;;18.92;10.63;;;;;;;14.95;79.02;101068.75;5044650;28;20132;-46
2021/07/10 04:07:47;;;;;;;21.55;10.82;;;;;;;14.97;79.03;101068.38;5042317;28;20054;-43
2021/07/10 04:10:14;;;;;;;245.60;110.80;;;;;;;14.98;78.87;101068.00;5043274;28;22449;-50
2021/07/10 04:12:42;;;;;;;35.97;16.92;;;;;;;15.00;78.92;101068.44;5026043;28;20059;-43
2021/07/10 04:15:15;;;;;;;129.02;54.10;;;;;;;15.02;78.74;101066.09;5024438;28;20064;-44
2021/07/10 04:17:43;;;;;;;11.63;5.45;;;;;;;15.06;78.54;101060.59;5048095;28;20051;-50
2021/07/10 04:20:10;;;;;;;30.45;13.18;;;;;;;15.08;78.43;101055.44;5039913;28;20052;-43
2021/07/10 04:22:38;;;;;;;372.85;129.73;;;;;;;15.12;78.32;101065.50;5042466;28;20067;-44
2021/07/10 04:25:08;;;;;;;460.10;158.40;;;;;;;15.11;78.25;101052.75;5041739;28;20071;-44
2021/07/10 04:27:35;;;;;;;166.20;53.08;;;;;;;15.13;78.09;101058.75;5041977;28;20041;-52
2021/07/10 04:30:03;;;;;;;100.57;32.97;;;;;;;15.16;78.04;101058.03;5041486;28;20084;-45
2021/07/10 04:32:30;;;;;;;45.10;12.48;;;;;;;15.17;77.79;101067.97;5022674;28;20128;-43
2021/07/10 04:34:57;;;;;;;86.63;24.45;;;;;;;15.17;77.72;101070.78;5025525;28;20072;-45
2021/07/10 04:37:24;;;;;;;38.28;11.93;;;;;;;15.17;77.88;101058.81;5039459;28;20049;-48
2021/07/10 04:39:51;;;;;;;34.05;10.25;;;;;;;15.20;77.48;101060.84;5045033;28;20045;-45
2021/07/10 04:42:21;;;;;;;10.60;4.63;;;;;;;15.14;77.80;101067.94;5043098;28;20140;-51
2021/07/10 04:44:48;;;;;;;7.65;4.43;;;;;;;15.15;77.75;101063.94;5039810;28;20063;-46
2021/07/10 04:47:15;;;;;;;6.95;3.42;;;;;;;15.18;77.64;101069.59;5040955;28;20059;-43
2021/07/10 04:49:42;;;;;;;3.88;2.33;;;;;;;15.23;77.49;101057.34;5039830;28;20175;-50
2021/07/10 04:52:09;;;;;;;5.07;2.80;;;;;;;15.25;77.66;101060.56;5043541;28;20055;-43
2021/07/10 04:54:36;;;;;;;5.40;2.63;;;;;;;15.27;77.31;101060.19;5045615;28;20143;-44
2021/07/10 04:57:03;;;;;;;4.50;1.98;;;;;;;15.31;77.52;101061.06;5022814;28;20045;-44
2021/07/10 04:59:30;;;;;;;6.72;3.42;;;;;;;15.32;77.63;101068.28;5043513;28;20136;-44
2021/07/10 05:01:59;;;;;;;3.33;3.03;;;;;;;15.33;77.54;101070.69;5044568;28;20045;-48
2021/07/10 05:04:26;;;;;;;3.55;2.13;;;;;;;15.35;77.34;101068.34;5025785;28;20080;-44
2021/07/10 05:06:56;;;;;;;2.53;1.83;;;;;;;15.35;77.55;101061.94;5042527;28;20056;-45
2021/07/10 05:09:25;;;;;;;2.17;1.92;;;;;;;15.39;77.52;101068.41;5038571;28;20056;-50
2021/07/10 05:11:54;;;;;;;;;;;;;;;15.37;77.54;101070.75;5042063;28;20114;-53
2021/07/10 05:14:21;;;;;;;3.90;2.20;;;;;;;15.40;77.46;101064.44;5039280;28;20358;-43
2021/07/10 05:16:49;;;;;;;4.28;2.28;;;;;;;15.43;77.33;101077.66;5044208;28;20060;-45
2021/07/10 05:19:16;;;;;;;5.30;2.00;;;;;;;15.43;77.34;101075.69;5041347;28;20052;-50
2021/07/10 05:21:43;;;;;;;2.03;1.73;;;;;;;15.43;77.15;101075.69;5042146;28;20049;-50
2021/07/10 05:24:10;;;;;;;5.60;1.85;;;;;;;15.40;77.13;101073.63;5040425;28;20052;-46
2021/07/10 05:26:36;;;;;;;3.67;1.83;;;;;;;15.38;77.01;101075.16;5042215;28;20045;-46
2021/07/10 05:29:05;;;;;;;5.88;2.15;;;;;;;15.39;76.92;101073.97;5046591;28;20147;-44
2021/07/10 05:31:32;;;;;;;2.47;1.73;;;;;;;15.39;76.92;101074.78;5023969;28;20053;-44
2021/07/10 05:33:59;;;;;;;2.20;1.95;;;;;;;15.41;76.81;101071.66;5040244;28;20064;-46
2021/07/10 05:36:27;;;;;;;2.80;1.92;;;;;;;15.41;76.93;101066.06;5032455;28;20135;-44
2021/07/10 05:38:53;;;;;;;3.40;1.85;;;;;;;15.44;77.18;101063.31;5023391;28;20057;-50
2021/07/10 05:41:20;;;;;;;4.50;1.90;;;;;;;15.47;76.97;101070.19;5036126;28;20056;-44
2021/07/10 05:43:47;;;;;;;2.22;1.83;;;;;;;15.47;76.91;101065.41;5041568;28;20056;-47
2021/07/10 05:46:14;;;;;;;4.45;1.98;;;;;;;15.49;76.94;101065.06;5040586;28;20049;-44
2021/07/10 05:48:41;;;;;;;3.17;1.98;;;;;;;15.50;76.90;101061.88;5038024;28;20079;-49
2021/07/10 05:51:08;;;;;;;3.60;2.05;;;;;;;15.50;77.07;101069.44;5038465;28;20052;-50
2021/07/10 05:53:35;;;;;;;2.45;1.77;;;;;;;15.54;77.15;101067.53;5041004;28;20124;-44
2021/07/10 05:56:02;;;;;;;4.85;2.40;;;;;;;15.57;77.25;101063.97;5036840;28;20478;-45
2021/07/10 05:58:29;;;;;;;2.88;1.80;;;;;;;15.59;77.00;101061.66;5036157;28;20049;-48
2021/07/10 06:00:56;;;;;;;2.17;1.98;;;;;;;15.62;77.09;101066.50;5039223;28;20571;-46
2021/07/10 06:03:22;;;;;;;3.63;2.08;;;;;;;15.66;77.24;101056.19;5040537;28;20075;-52
2021/07/10 06:05:49;;;;;;;2.60;2.03;;;;;;;15.68;77.04;101048.22;5039037;28;20285;-45
2021/07/10 06:08:16;;;;;;;4.45;2.75;;;;;;;15.70;76.92;101051.47;5034016;28;20627;-50
2021/07/10 06:10:45;;;;;;;3.45;2.17;;;;;;;15.72;76.77;101043.53;5041734;28;20086;-45
2021/07/10 06:13:12;;;;;;;4.25;1.85;;;;;;;15.76;76.95;101048.00;5034266;28;20083;-46
2021/07/10 06:15:39;;;;;;;2.53;1.88;;;;;;;15.79;76.80;101052.03;5036497;28;20053;-46
2021/07/10 06:18:07;;;;;;;3.65;2.05;;;;;;;15.80;76.70;101050.84;5037451;28;20060;-50
2021/07/10 06:20:36;;;;;;;4.50;1.90;;;;;;;15.84;76.71;101051.69;5037372;28;20072;-44
2021/07/10 06:23:05;;;;;;;2.53;1.90;;;;;;;15.89;76.67;101048.59;5037717;28;20059;-45
2021/07/10 06:25:36;;;;;;;4.75;2.28;;;;;;;15.90;76.51;101050.22;5036940;28;20056;-46
2021/07/10 06:28:05;;;;;;;1.83;1.55;;;;;;;15.96;76.52;101050.72;5051028;28;20056;-48
2021/07/10 06:30:32;;;;;;;2.25;1.90;;;;;;;16.03;76.52;101048.03;5040936;28;20048;-46
2021/07/10 06:33:00;;;;;;;2.20;1.55;;;;;;;16.08;76.11;101045.72;5036783;28;20045;-46
2021/07/10 06:35:27;;;;;;;4.35;1.70;;;;;;;16.12;76.06;101043.81;5038989;28;20132;-47
2021/07/10 06:37:53;;;;;;;4.57;2.00;;;;;;;16.19;75.80;101045.88;5038408;28;20057;-54
2021/07/10 06:40:21;;;;;;;4.03;1.95;;;;;;;16.24;75.79;101043.59;5037492;28;20599;-46
2021/07/10 06:42:48;;;;;;;2.55;2.13;;;;;;;16.27;75.74;101048.41;5041422;28;20872;-47
2021/07/10 06:45:17;;;;;;;4.55;1.98;;;;;;;16.28;75.37;101044.44;5040107;28;20122;-49
2021/07/10 06:47:45;;;;;;;3.13;1.40;;;;;;;16.28;75.17;101046.44;5040205;28;20048;-53
2021/07/10 06:50:16;;;;;;;2.38;1.55;;;;;;;16.31;75.09;101046.47;5039502;28;20102;-44
2021/07/10 06:52:44;;;;;;;3.80;2.30;;;;;;;16.37;75.23;101039.38;5037741;28;20041;-44
2021/07/10 06:55:12;;;;;;;3.33;1.55;;;;;;;16.43;74.81;101045.47;5043407;28;20159;-49
2021/07/10 06:57:42;;;;;;;3.05;1.50;;;;;;;16.51;74.85;101037.97;5038696;28;20522;-43
2021/07/10 07:00:13;;;;;;;1.88;1.48;;;;;;;16.52;74.48;101042.38;5038773;28;20049;-46
2021/07/10 07:02:41;;;;;;;2.55;1.45;;;;;;;16.55;74.27;101030.50;5034660;28;20188;-50
2021/07/10 07:05:09;;;;;;;4.47;1.73;;;;;;;16.60;74.09;101030.16;5037148;28;20142;-47
2021/07/10 07:07:38;;;;;;;3.30;1.50;;;;;;;16.67;74.09;101038.63;5040232;28;20052;-45
2021/07/10 07:10:06;;;;;;;3.05;1.65;;;;;;;16.71;73.65;101045.06;5045612;28;20533;-51
2021/07/10 07:12:34;;;;;;;3.00;1.42;;;;;;;16.76;73.61;101039.94;5042030;28;20059;-45
2021/07/10 07:15:01;;;;;;;1.92;1.60;;;;;;;16.82;73.46;101043.22;5024743;28;20056;-50
2021/07/10 07:17:28;;;;;;;1.40;1.25;;;;;;;16.86;73.47;101041.28;5054274;28;20135;-45
2021/07/10 07:19:54;;;;;;;1.90;1.33;;;;;;;16.90;73.29;101045.72;5041817;28;20573;-47
2021/07/10 07:22:21;;;;;;;3.58;2.00;;;;;;;16.99;73.07;101045.44;5039052;28;20053;-49
2021/07/10 07:24:48;;;;;;;3.38;1.27;;;;;;;17.07;72.81;101047.13;5041267;28;20052;-45
2021/07/10 07:27:15;;;;;;;1.30;1.20;;;;;;;17.12;72.59;101044.00;5038890;28;20053;-53
2021/07/10 07:29:42;;;;;;;2.65;1.38;;;;;;;17.23;72.49;101056.13;5038980;28;20055;-43
2021/07/10 07:32:09;;;;;;;2.92;1.98;;;;;;;17.31;72.02;101048.59;5039699;28;20406;-45
2021/07/10 07:34:36;;;;;;;1.23;1.13;;;;;;;17.37;71.95;101056.25;5042205;28;20041;-44
2021/07/10 07:37:03;;;;;;;3.80;1.65;;;;;;;17.45;71.73;101043.94;5019731;28;20060;-45
2021/07/10 07:39:32;;;;;;;4.70;1.40;;;;;;;17.49;71.35;101046.78;5041245;28;20454;-44
2021/07/10 07:41:59;;;;;;;2.88;1.83;;;;;;;17.54;71.30;101041.69;5040046;28;20052;-46
2021/07/10 07:44:26;;;;;;;2.45;1.23;;;;;;;17.66;71.35;101046.16;5043970;28;20053;-46
2021/07/10 07:46:52;;;;;;;3.85;1.52;;;;;;;17.81;71.05;101039.53;5045482;28;20045;-45
2021/07/10 07:49:19;;;;;;;2.78;1.38;;;;;;;17.96;70.83;101037.63;5020265;28;20160;-45
2021/07/10 07:51:46;;;;;;;3.10;1.30;;;;;;;18.04;70.65;101039.31;5040693;28;20055;-45
2021/07/10 07:54:12;;;;;;;2.55;1.65;;;;;;;18.15;70.33;101037.38;5038637;28;20048;-48
2021/07/10 07:56:39;;;;;;;2.63;1.45;;;;;;;18.27;69.85;101041.88;5043182;28;20055;-52
2021/07/10 07:59:06;;;;;;;1.98;1.02;;;;;;;18.37;69.47;101047.56;5044673;28;20061;-46
2021/07/10 08:01:33;;;;;;;1.75;1.42;;;;;;;18.44;69.20;101046.78;5044665;28;20147;-52
2021/07/10 08:04:00;;;;;;;1.58;1.13;;;;;;;18.52;68.71;101048.47;5045079;28;20061;-46
2021/07/10 08:06:28;;;;;;;2.70;1.30;;;;;;;18.54;68.51;101051.69;5041862;28;20108;-45
2021/07/10 08:08:54;;;;;;;1.00;0.90;;;;;;;18.56;67.96;101050.09;5038970;28;20053;-49
2021/07/10 08:11:21;;;;;;;1.90;1.23;;;;;;;18.56;67.50;101054.91;5041425;28;20061;-46
2021/07/10 08:13:48;;;;;;;2.45;1.17;;;;;;;18.53;67.50;101053.66;5043085;28;20063;-54
2021/07/10 08:16:15;;;;;;;2.53;1.15;;;;;;;18.61;67.42;101057.34;5040376;28;20159;-46
2021/07/10 08:18:43;;;;;;;4.35;1.20;;;;;;;18.61;67.17;101058.13;5043585;28;20047;-46
2021/07/10 08:21:10;;;;;;;1.58;1.20;;;;;;;18.67;67.15;101055.75;5042439;28;20464;-52
2021/07/10 08:23:38;;;;;;;1.80;1.70;;;;;;;18.73;66.99;101051.38;5044113;28;20041;-56
2021/07/10 08:26:05;;;;;;;2.15;1.17;;;;;;;18.78;66.82;101049.00;5042470;28;20045;-47
2021/07/10 08:28:31;;;;;;;1.40;1.23;;;;;;;18.90;66.70;101052.69;5044766;28;20056;-49
2021/07/10 08:30:58;;;;;;;3.70;1.52;;;;;;;18.99;66.70;101048.31;5047495;28;20049;-53
2021/07/10 08:33:25;;;;;;;1.52;1.42;;;;;;;19.18;66.94;101044.34;5040324;28;20053;-47
2021/07/10 08:35:52;;;;;;;3.88;1.52;;;;;;;19.53;66.74;101046.47;5045623;28;20060;-46
2021/07/10 08:38:19;;;;;;;1.90;1.00;;;;;;;19.66;65.96;101045.72;5042171;28;20037;-47
2021/07/10 08:40:46;;;;;;;3.03;1.35;;;;;;;20.23;65.84;101046.50;5040531;28;20052;-48
2021/07/10 08:43:13;;;;;;;5.50;3.45;;;;;;;21.03;64.52;101039.06;5043040;28;20049;-47
2021/07/10 08:45:44;;;;;;;2.30;1.55;;;;;;;21.80;62.96;101037.81;5044699;28;20064;-44
2021/07/10 08:48:13;;;;;;;4.55;1.25;;;;;;;22.39;61.85;101034.91;5041110;28;20094;-45
2021/07/10 08:50:40;;;;;;;2.08;1.00;;;;;;;23.03;60.50;101046.28;5042510;28;20069;-53
2021/07/10 08:53:08;;;;;;;2.08;1.20;;;;;;;23.55;58.80;101032.66;5043834;28;20049;-44
2021/07/10 08:55:36;;;;;;;3.38;1.10;;;;;;;23.94;57.83;101038.50;5040309;28;20059;-50
2021/07/10 08:58:03;;;;;;;1.52;0.98;;;;;;;24.32;56.12;101030.59;5040497;28;20409;-54
2021/07/10 09:00:37;;;;;;;1.73;1.05;;;;;;;24.48;54.21;101022.19;5042412;28;20052;-45
2021/07/10 09:03:06;;;;;;;1.98;1.13;;;;;;;24.71;53.52;101027.00;5040728;28;20080;-47
2021/07/10 09:05:34;;;;;;;2.13;1.08;;;;;;;24.94;52.32;101023.34;5040044;28;20041;-44
2021/07/10 09:08:17;;;;;;;1.13;0.82;;;;;;;25.26;49.22;101027.06;5041250;28;20056;-46
2021/07/10 09:11:05;;;;;;;1.77;0.98;;;;;;;25.41;50.31;101031.19;5044598;28;20063;-49
2021/07/10 09:13:47;;;;;;;1.27;1.00;;;;;;;25.70;49.53;101030.53;5044389;28;20055;-45
2021/07/10 09:16:22;;;;;;;0.80;0.80;;;;;;;25.67;49.34;101035.06;5042506;28;20063;-46
2021/07/10 09:19:01;;;;;;;1.95;0.70;;;;;;;25.26;47.91;101026.25;5046130;28;20135;-53
2021/07/10 09:21:52;;;;;;;1.35;0.90;;;;;;;24.92;48.81;101026.59;5042306;28;20382;-50
2021/07/10 09:24:34;;;;;;;1.45;0.88;;;;;;;24.70;48.63;101023.34;5041750;28;20048;-45
2021/07/10 09:27:04;;;;;;;1.65;1.10;;;;;;;24.59;49.35;101024.81;5044407;28;20865;-46
2021/07/10 09:29:40;;;;;;;1.70;1.03;;;;;;;24.64;48.66;101025.13;5044412;28;20083;-45
2021/07/10 09:32:12;;;;;;;2.72;0.85;;;;;;;24.61;49.20;101025.97;5040701;28;20056;-45
2021/07/10 09:34:44;;;;;;;1.08;0.80;;;;;;;24.52;48.84;101016.44;5039431;28;20073;-48
2021/07/10 09:37:14;;;;;;;0.80;0.80;;;;;;;24.56;49.17;101018.00;5040011;28;20136;-44
2021/07/10 09:40:10;;;;;;;3.08;0.93;;;;;;;24.48;48.84;101016.53;5038284;28;20489;-48
2021/07/10 09:42:43;;;;;;;1.25;1.05;;;;;;;24.60;48.94;101018.72;5039840;28;20150;-50
2021/07/10 09:45:23;;;;;;;1.58;1.00;;;;;;;24.81;48.30;101017.50;5051709;28;20079;-54
2021/07/10 09:47:51;;;;;;;7.20;1.52;;;;;;;24.61;48.79;101016.69;5040274;28;20140;-50
2021/07/10 09:50:22;;;;;;;1.05;0.95;;;;;;;24.38;48.65;101019.56;5038034;28;20913;-54
2021/07/10 09:52:49;;;;;;;1.75;1.30;;;;;;;24.25;48.88;101018.59;5040273;28;20112;-44
2021/07/10 09:55:17;;;;;;;1.77;1.48;;;;;;;24.12;49.48;101009.91;5041156;28;20520;-46
2021/07/10 09:57:46;;;;;;;2.00;1.33;;;;;;;24.14;49.40;101015.97;5043323;28;20087;-44
2021/07/10 10:00:16;;;;;;;2.97;1.27;;;;;;;24.13;49.11;101017.19;5042622;28;20048;-43
2021/07/10 10:02:55;;;;;;;2.67;0.80;;;;;;;24.10;48.48;101012.38;5023254;28;20126;-44
2021/07/10 10:05:28;;;;;;;3.58;1.05;;;;;;;23.98;48.92;101013.00;5040271;28;20155;-46
2021/07/10 10:08:00;;;;;;;1.70;1.30;;;;;;;23.91;48.99;101021.56;5043115;28;20053;-49
2021/07/10 10:10:28;;;;;;;2.53;1.50;;;;;;;24.20;48.72;101025.53;5052055;28;20052;-45
2021/07/10 10:13:22;;;;;;;1.30;1.02;;;;;;;24.42;47.59;101023.94;5041723;28;20045;-52
2021/07/10 10:15:52;;;;;;;1.75;1.20;;;;;;;24.58;48.20;101031.72;5036013;28;20056;-45
2021/07/10 10:18:21;;;;;;;3.63;2.75;;;;;;;24.63;48.20;101017.03;5041655;28;20059;-48
2021/07/10 10:20:51;;;;;;;3.00;1.58;;;;;;;24.80;48.12;101028.06;5044363;28;20466;-46
2021/07/10 10:23:19;;;;;;;1.88;1.33;;;;;;;24.90;47.88;101031.09;5040565;28;20678;-47
2021/07/10 10:25:50;;;;;;;1.05;1.00;;;;;;;24.94;47.55;101021.28;5040663;28;20049;-47
2021/07/10 10:28:18;;;;;;;1.67;1.30;;;;;;;24.84;47.58;101025.13;5040498;28;20049;-45
2021/07/10 10:30:51;;;;;;;2.38;1.48;;;;;;;24.76;47.62;101026.47;5041114;28;20144;-50
2021/07/10 10:33:19;;;;;;;2.38;1.40;;;;;;;24.45;47.68;101027.91;5043516;28;20045;-51
2021/07/10 10:35:47;;;;;;;2.65;1.05;;;;;;;24.34;47.87;101028.13;5040313;28;20177;-51
2021/07/10 10:38:14;;;;;;;1.98;1.40;;;;;;;24.30;48.43;101032.25;5039223;28;20059;-45
2021/07/10 10:40:42;;;;;;;2.50;1.75;;;;;;;24.32;48.41;101030.59;5045228;28;20060;-48
2021/07/10 10:43:16;;;;;;;4.20;2.88;;;;;;;24.07;47.42;101018.88;5038988;28;20052;-47
2021/07/10 10:45:44;;;;;;;2.55;1.00;;;;;;;24.00;48.66;101016.19;5040646;28;20491;-51
2021/07/10 10:48:11;;;;;;;2.17;1.05;;;;;;;24.07;48.88;101013.22;5039736;28;20049;-44
2021/07/10 10:50:40;;;;;;;2.78;1.10;;;;;;;24.18;48.75;101011.03;5038109;28;20709;-49
2021/07/10 10:53:08;;;;;;;2.25;0.93;;;;;;;24.16;48.35;101013.50;5038972;28;20055;-46
2021/07/10 10:55:39;;;;;;;1.45;1.10;;;;;;;24.29;48.04;101024.97;5035868;28;20053;-46
2021/07/10 10:58:16;;;;;;;4.25;1.70;;;;;;;24.32;47.89;101009.97;5039400;28;20056;-54
2021/07/10 11:00:46;;;;;;;2.38;1.08;;;;;;;24.28;48.22;101001.53;5035680;28;20056;-48
2021/07/10 11:03:20;;;;;;;8.18;2.65;;;;;;;24.22;48.27;101006.91;5038693;28;20494;-45
2021/07/10 11:05:52;;;;;;;4.68;1.65;;;;;;;23.90;48.27;101008.69;5038016;28;20049;-45
2021/07/10 11:08:24;;;;;;;5.53;1.35;;;;;;;23.72;48.47;101002.53;5042782;28;20516;-52
2021/07/10 11:10:54;;;;;;;0.90;0.90;;;;;;;23.56;48.86;100998.31;5040965;28;20139;-45
2021/07/10 11:13:30;;;;;;;2.47;1.00;;;;;;;23.44;49.11;100992.44;5040098;28;20417;-47
2021/07/10 11:16:23;;;;;;;2.88;1.10;;;;;;;23.45;49.39;100986.38;5039502;28;20049;-47
2021/07/10 11:19:01;;;;;;;2.72;1.42;;;;;;;23.30;49.14;100982.13;5036864;28;20588;-46
2021/07/10 11:21:37;;;;;;;3.53;1.10;;;;;;;23.18;50.02;100977.06;5038883;28;22482;-45
2021/07/10 11:24:25;;;;;;;1.02;1.00;;;;;;;22.99;50.07;100980.56;5043898;28;20075;-50
2021/07/10 11:26:57;;;;;;;1.63;1.38;;;;;;;22.84;50.80;100987.63;5019481;28;20067;-44
2021/07/10 11:29:30;;;;;;;1.45;0.77;;;;;;;22.77;50.00;100984.91;5023999;28;20063;-55
2021/07/10 11:32:15;;;;;;;1.00;0.90;;;;;;;22.67;49.88;100991.47;5038208;28;20140;-44